createdAt,value
2023-02-11T00:00:54.810Z,39.50
2023-02-11T00:03:21.448Z,40.77
2023-02-11T00:06:00.412Z,41.43
2023-02-11T00:08:26.907Z,39.60
2023-02-11T00:10:58.010Z,41.60
2023-02-11T00:13:25.119Z,36.53
2023-02-11T00:15:51.819Z,45.50
2023-02-11T00:18:18.500Z,41.60
2023-02-11T00:20:44.887Z,34.93
2023-02-11T00:23:11.536Z,39.63
2023-02-11T00:25:42.056Z,34.87
2023-02-11T00:28:09.623Z,41.50
2023-02-11T00:30:36.681Z,42.80
2023-02-11T00:33:03.982Z,43.63
2023-02-11T00:35:30.406Z,34.83
2023-02-11T00:37:57.080Z,46.20
2023-02-11T00:40:23.703Z,38.93
2023-02-11T00:42:50.137Z,43.93
2023-02-11T00:45:16.564Z,44.03
2023-02-11T00:47:43.022Z,45.37
2023-02-11T00:50:09.603Z,43.47
2023-02-11T00:52:36.003Z,36.20
2023-02-11T00:55:02.388Z,41.30
2023-02-11T00:57:28.874Z,40.80
2023-02-11T00:59:55.299Z,39.23
2023-02-11T01:02:21.771Z,40.60
2023-02-11T01:04:48.260Z,38.37
2023-02-11T01:07:14.860Z,45.13
2023-02-11T01:09:41.319Z,39.83
2023-02-11T01:12:07.714Z,39.23
2023-02-11T01:14:34.088Z,38.60
2023-02-11T01:17:00.474Z,35.43
2023-02-11T01:19:26.904Z,39.20
2023-02-11T01:21:53.306Z,37.07
2023-02-11T01:24:19.682Z,46.80
2023-02-11T01:26:46.162Z,41.00
2023-02-11T01:29:12.587Z,40.60
2023-02-11T01:31:39.108Z,38.90
2023-02-11T01:34:05.646Z,40.90
2023-02-11T01:36:32.080Z,38.70
2023-02-11T01:38:58.609Z,36.40
2023-02-11T01:41:25.022Z,36.73
2023-02-11T01:43:51.479Z,34.73
2023-02-11T01:46:20.529Z,34.40
2023-02-11T01:48:51.698Z,37.20
2023-02-11T01:51:25.735Z,32.50
2023-02-11T01:54:29.033Z,38.43
2023-02-11T01:57:17.708Z,37.07
2023-02-11T01:59:56.336Z,36.40
2023-02-11T02:02:30.546Z,39.93
2023-02-11T02:05:05.988Z,42.07
2023-02-11T02:07:46.056Z,36.83
2023-02-11T02:10:19.098Z,39.50
2023-02-11T02:12:45.534Z,40.57
2023-02-11T02:15:19.381Z,40.50
2023-02-11T02:17:57.006Z,34.70
2023-02-11T02:20:44.302Z,37.33
2023-02-11T02:23:41.436Z,36.00
2023-02-11T02:26:27.400Z,39.77
2023-02-11T02:29:15.713Z,41.70
2023-02-11T02:31:59.360Z,39.70
2023-02-11T02:34:38.100Z,38.67
2023-02-11T02:37:17.235Z,39.33
2023-02-11T02:39:47.774Z,41.13
2023-02-11T02:42:15.003Z,37.07
2023-02-11T02:44:41.509Z,37.20
2023-02-11T02:47:07.953Z,36.43
2023-02-11T02:49:34.356Z,33.60
2023-02-11T02:52:07.800Z,38.47
2023-02-11T02:54:44.975Z,34.80
2023-02-11T02:57:30.012Z,36.30
2023-02-11T03:00:22.715Z,34.80
2023-02-11T03:03:07.664Z,38.00
2023-02-11T03:06:15.380Z,43.83
2023-02-11T03:08:56.970Z,40.10
2023-02-11T03:11:25.646Z,39.10
2023-02-11T03:13:54.562Z,36.40
2023-02-11T03:16:27.809Z,39.23
2023-02-11T03:19:05.157Z,36.17
2023-02-11T03:21:33.625Z,39.50
2023-02-11T03:24:05.814Z,33.30
2023-02-11T03:26:42.878Z,38.93
2023-02-11T03:29:24.265Z,33.57
2023-02-11T03:32:27.915Z,32.93
2023-02-11T03:35:32.199Z,37.03
2023-02-11T03:38:11.524Z,34.70
2023-02-11T03:40:43.578Z,41.00
2023-02-11T03:43:20.262Z,38.80
2023-02-11T03:45:50.781Z,38.10
2023-02-11T03:48:25.339Z,37.30
2023-02-11T03:50:54.021Z,41.30
2023-02-11T03:53:22.755Z,38.87
2023-02-11T03:55:51.613Z,35.13
2023-02-11T03:58:18.221Z,34.63
2023-02-11T04:00:45.008Z,35.63
2023-02-11T04:03:12.773Z,39.50
2023-02-11T04:05:39.586Z,39.97
2023-02-11T04:08:06.504Z,42.13
2023-02-11T04:10:33.367Z,40.97
2023-02-11T04:12:59.821Z,38.37
2023-02-11T04:15:26.256Z,39.07
2023-02-11T04:17:52.892Z,42.33
2023-02-11T04:20:19.516Z,37.37
2023-02-11T04:22:45.931Z,33.30
2023-02-11T04:25:12.455Z,43.03
2023-02-11T04:27:38.909Z,39.47
2023-02-11T04:30:06.361Z,35.97
2023-02-11T04:32:32.794Z,38.23
2023-02-11T04:34:59.191Z,38.70
2023-02-11T04:37:25.614Z,44.80
2023-02-11T04:39:52.029Z,47.73
2023-02-11T04:42:18.412Z,45.50
2023-02-11T04:44:44.835Z,40.40
2023-02-11T04:47:13.375Z,40.50
2023-02-11T04:49:39.779Z,37.47
2023-02-11T04:52:06.241Z,37.57
2023-02-11T04:54:32.688Z,37.30
2023-02-11T04:56:59.094Z,39.30
2023-02-11T04:59:25.515Z,32.30
2023-02-11T05:01:51.951Z,37.57
2023-02-11T05:04:18.668Z,41.97
2023-02-11T05:06:45.105Z,35.50
2023-02-11T05:09:13.231Z,36.73
2023-02-11T05:11:40.077Z,36.63
2023-02-11T05:14:06.940Z,40.10
2023-02-11T05:16:33.978Z,36.73
2023-02-11T05:19:00.562Z,37.10
2023-02-11T05:21:26.985Z,37.03
2023-02-11T05:23:53.468Z,40.70
2023-02-11T05:26:19.880Z,44.07
2023-02-11T05:28:46.349Z,39.20
2023-02-11T05:31:14.613Z,37.70
2023-02-11T05:33:41.741Z,39.40
2023-02-11T05:36:10.381Z,34.13
2023-02-11T05:38:37.687Z,39.50
2023-02-11T05:41:05.274Z,42.93
2023-02-11T05:43:31.784Z,39.10
2023-02-11T05:45:58.622Z,36.23
2023-02-11T05:48:25.082Z,37.33
2023-02-11T05:50:51.565Z,33.93
2023-02-11T05:53:17.996Z,37.20
2023-02-11T05:55:44.794Z,31.97
2023-02-11T05:58:11.383Z,33.83
2023-02-11T06:00:38.163Z,37.37
2023-02-11T06:03:04.788Z,31.43
2023-02-11T06:05:31.932Z,36.77
2023-02-11T06:07:58.613Z,41.03
2023-02-11T06:10:25.094Z,38.20
2023-02-11T06:12:51.541Z,39.67
2023-02-11T06:15:18.174Z,35.80
2023-02-11T06:17:44.580Z,30.93
2023-02-11T06:20:11.792Z,36.47
2023-02-11T06:22:38.627Z,35.43
2023-02-11T06:25:05.616Z,37.30
2023-02-11T06:27:32.270Z,36.17
2023-02-11T06:29:58.801Z,35.00
2023-02-11T06:32:43.219Z,37.80
2023-02-11T06:35:12.359Z,33.93
2023-02-11T06:37:39.648Z,38.27
2023-02-11T06:40:06.362Z,35.23
2023-02-11T06:42:32.828Z,33.57
2023-02-11T06:44:59.300Z,35.23
2023-02-11T06:47:25.789Z,36.30
2023-02-11T06:49:52.206Z,37.53
2023-02-11T06:52:18.590Z,39.70
2023-02-11T06:54:44.978Z,38.20
2023-02-11T06:57:11.497Z,32.90
2023-02-11T06:59:37.941Z,34.37
2023-02-11T07:02:04.554Z,35.70
2023-02-11T07:04:30.955Z,34.77
2023-02-11T07:06:57.385Z,43.40
2023-02-11T07:09:23.799Z,38.57
2023-02-11T07:11:50.223Z,42.37
2023-02-11T07:14:16.952Z,42.10
2023-02-11T07:16:43.420Z,36.60
2023-02-11T07:19:10.017Z,38.00
2023-02-11T07:21:36.448Z,37.17
2023-02-11T07:24:10.329Z,42.70
2023-02-11T07:26:37.282Z,38.40
2023-02-11T07:29:03.707Z,42.50
2023-02-11T07:31:30.843Z,43.00
2023-02-11T07:34:00.182Z,34.30
2023-02-11T07:36:29.187Z,38.57
2023-02-11T07:38:55.688Z,40.03
2023-02-11T07:41:23.497Z,35.03
2023-02-11T07:43:50.300Z,41.17
2023-02-11T07:46:24.975Z,40.20
2023-02-11T07:48:51.944Z,43.47
2023-02-11T07:51:24.186Z,41.10
2023-02-11T07:53:51.855Z,47.03
2023-02-11T07:56:20.085Z,42.43
2023-02-11T07:58:46.966Z,44.57
2023-02-11T08:01:19.371Z,44.70
2023-02-11T08:03:45.877Z,41.20
2023-02-11T08:06:14.678Z,43.20
2023-02-11T08:08:41.781Z,42.27
2023-02-11T08:11:21.265Z,45.80
2023-02-11T08:13:48.230Z,44.97
2023-02-11T08:16:23.991Z,41.50
2023-02-11T08:18:51.773Z,39.30
2023-02-11T08:21:19.745Z,44.60
2023-02-11T08:23:47.203Z,41.30
2023-02-11T08:26:16.507Z,45.03
2023-02-11T08:28:45.474Z,44.57
2023-02-11T08:31:18.425Z,47.90
2023-02-11T08:33:45.971Z,41.40
2023-02-11T08:36:15.495Z,45.73
2023-02-11T08:38:42.311Z,40.97
2023-02-11T08:41:08.902Z,44.00
2023-02-11T08:43:36.390Z,41.83
2023-02-11T08:46:03.337Z,45.90
2023-02-11T08:48:30.226Z,43.47
2023-02-11T08:50:57.027Z,47.00
2023-02-11T08:53:23.858Z,52.40
2023-02-11T08:55:52.002Z,45.90
2023-02-11T08:58:19.291Z,49.70
2023-02-11T09:00:46.554Z,49.70
2023-02-11T09:03:14.714Z,49.80
2023-02-11T09:05:43.238Z,49.00
2023-02-11T09:08:10.128Z,50.50
2023-02-11T09:10:36.553Z,48.40
2023-02-11T09:13:03.453Z,49.87
2023-02-11T09:15:30.398Z,53.93
2023-02-11T09:17:57.042Z,51.77
2023-02-11T09:20:23.874Z,55.00
2023-02-11T09:22:50.551Z,48.53
2023-02-11T09:25:16.982Z,52.87
2023-02-11T09:27:43.440Z,51.10
2023-02-11T09:30:10.489Z,51.60
2023-02-11T09:32:37.153Z,45.30
2023-02-11T09:35:04.350Z,48.67
2023-02-11T09:37:30.759Z,50.70
2023-02-11T09:39:57.146Z,45.57
2023-02-11T09:42:59.753Z,45.03
2023-02-11T09:45:30.141Z,48.57
2023-02-11T09:48:06.353Z,48.53
2023-02-11T09:50:40.797Z,47.87
2023-02-11T09:53:41.355Z,51.27
2023-02-11T09:56:13.810Z,44.90
2023-02-11T09:58:43.321Z,52.83
2023-02-11T10:01:35.420Z,46.20
2023-02-11T10:04:23.034Z,48.87
2023-02-11T10:06:55.052Z,47.10
2023-02-11T10:09:45.680Z,46.63
2023-02-11T10:12:18.041Z,48.00
2023-02-11T10:15:09.337Z,48.70
2023-02-11T10:17:44.791Z,47.93
2023-02-11T10:20:17.330Z,50.60
2023-02-11T10:22:50.451Z,47.30
2023-02-11T10:25:27.569Z,49.90
2023-02-11T10:27:58.065Z,47.93
2023-02-11T10:30:37.119Z,46.73
2023-02-11T10:33:32.410Z,45.97
2023-02-11T10:35:59.325Z,48.10
2023-02-11T10:38:26.362Z,48.77
2023-02-11T10:40:52.949Z,49.03
2023-02-11T10:43:24.392Z,45.77
2023-02-11T10:45:53.178Z,51.53
2023-02-11T10:48:44.045Z,51.40
2023-02-11T10:51:14.649Z,50.67
2023-02-11T10:53:41.361Z,50.20
2023-02-11T10:56:12.711Z,50.13
2023-02-11T10:59:01.296Z,46.37
2023-02-11T11:01:52.508Z,50.27
2023-02-11T11:04:35.545Z,52.10
2023-02-11T11:07:16.848Z,48.83
2023-02-11T11:09:50.352Z,50.97
2023-02-11T11:12:25.853Z,45.53
2023-02-11T11:14:56.263Z,47.93
2023-02-11T11:17:22.801Z,48.13
2023-02-11T11:19:49.208Z,46.73
2023-02-11T11:22:22.243Z,48.90
2023-02-11T11:24:55.226Z,46.60
2023-02-11T11:27:24.741Z,54.73
2023-02-11T11:29:56.112Z,50.20
2023-02-11T11:32:25.579Z,49.13
2023-02-11T11:34:59.817Z,54.57
2023-02-11T11:37:29.400Z,53.53
2023-02-11T11:40:22.406Z,50.67
2023-02-11T11:43:12.165Z,50.67
2023-02-11T11:45:38.814Z,45.67
2023-02-11T11:48:26.951Z,50.43
2023-02-11T11:50:59.790Z,48.43
2023-02-11T11:53:34.224Z,50.40
2023-02-11T11:56:05.306Z,48.93
2023-02-11T11:58:33.708Z,50.93
2023-02-11T12:01:39.329Z,49.40
2023-02-11T12:04:36.485Z,48.80
2023-02-11T12:07:23.318Z,45.73
2023-02-11T12:10:09.769Z,54.03
2023-02-11T12:12:55.872Z,50.80
2023-02-11T12:15:42.958Z,52.57
2023-02-11T12:18:50.672Z,51.23
2023-02-11T12:21:52.531Z,42.07
2023-02-11T12:25:00.217Z,45.20
2023-02-11T12:27:38.807Z,48.93
2023-02-11T12:30:34.183Z,48.87
2023-02-11T12:33:28.634Z,54.87
2023-02-11T12:36:16.884Z,52.00
2023-02-11T12:39:29.411Z,54.00
2023-02-11T12:42:32.725Z,43.97
2023-02-11T12:45:11.054Z,49.30
2023-02-11T12:47:46.641Z,52.50
2023-02-11T12:50:21.057Z,52.83
2023-02-11T12:52:53.662Z,49.60
2023-02-11T12:55:23.425Z,46.80
2023-02-11T12:57:53.535Z,53.10
2023-02-11T13:00:26.808Z,44.97
2023-02-11T13:03:33.099Z,44.80
2023-02-11T13:06:05.376Z,51.27
2023-02-11T13:08:46.137Z,49.80
2023-02-11T13:11:44.087Z,51.07
2023-02-11T13:14:27.002Z,47.47
2023-02-11T13:16:55.051Z,45.07
2023-02-11T13:19:30.419Z,49.67
2023-02-11T13:22:05.590Z,45.80
2023-02-11T13:24:44.547Z,48.60
2023-02-11T13:27:20.261Z,53.47
2023-02-11T13:30:14.745Z,45.37
2023-02-11T13:32:56.603Z,42.50
2023-02-11T13:35:40.921Z,48.47
2023-02-11T13:38:16.350Z,49.13
2023-02-11T13:40:43.395Z,47.63
2023-02-11T13:43:23.251Z,43.60
2023-02-11T13:45:52.279Z,45.47
2023-02-11T13:48:24.834Z,50.30
2023-02-11T13:50:58.943Z,43.50
2023-02-11T13:53:26.003Z,47.00
2023-02-11T13:56:09.952Z,44.83
2023-02-11T13:58:46.922Z,47.67
2023-02-11T14:01:39.642Z,47.73
2023-02-11T14:04:51.282Z,43.40
2023-02-11T14:07:51.883Z,45.60
2023-02-11T14:10:40.951Z,46.47
2023-02-11T14:13:37.032Z,41.90
2023-02-11T14:16:36.874Z,48.13
2023-02-11T14:19:04.528Z,46.10
2023-02-11T14:21:38.266Z,49.13
2023-02-11T14:24:04.951Z,51.73
2023-02-11T14:26:36.432Z,47.27
2023-02-11T14:29:17.929Z,46.20
2023-02-11T14:31:54.991Z,43.33
2023-02-11T14:34:40.995Z,42.40
2023-02-11T14:37:30.402Z,50.17
2023-02-11T14:40:26.781Z,50.93
2023-02-11T14:42:54.770Z,49.90
2023-02-11T14:45:26.312Z,50.93
2023-02-11T14:48:08.299Z,57.30
2023-02-11T14:50:43.160Z,51.53
2023-02-11T14:53:22.517Z,49.70
2023-02-11T14:55:54.304Z,48.37
2023-02-11T14:58:23.995Z,40.30
2023-02-11T15:01:09.049Z,46.40
2023-02-11T15:03:38.460Z,47.53
2023-02-11T15:06:13.919Z,44.37
2023-02-11T15:08:47.340Z,45.70
2023-02-11T15:11:17.387Z,42.70
2023-02-11T15:13:47.484Z,48.13
2023-02-11T15:16:18.564Z,46.67
2023-02-11T15:19:01.257Z,45.33
2023-02-11T15:21:30.202Z,46.37
2023-02-11T15:24:02.274Z,47.93
2023-02-11T15:26:29.824Z,47.23
2023-02-11T15:28:56.292Z,42.93
2023-02-11T15:31:25.437Z,44.10
2023-02-11T15:33:53.161Z,48.30
2023-02-11T15:36:28.194Z,47.30
2023-02-11T15:39:29.312Z,51.20
2023-02-11T15:41:55.860Z,44.40
2023-02-11T15:44:33.073Z,44.77
2023-02-11T15:46:59.916Z,44.23
2023-02-11T15:49:26.853Z,44.87
2023-02-11T15:51:55.722Z,46.87
2023-02-11T15:54:26.787Z,45.90
2023-02-11T15:56:58.858Z,42.23
2023-02-11T15:59:32.693Z,46.83
2023-02-11T16:02:09.123Z,44.20
2023-02-11T16:04:36.263Z,39.90
2023-02-11T16:07:03.097Z,50.67
2023-02-11T16:09:35.231Z,50.87
2023-02-11T16:12:24.319Z,40.77
2023-02-11T16:14:50.746Z,44.20
2023-02-11T16:17:28.948Z,41.30
2023-02-11T16:19:55.897Z,44.30
2023-02-11T16:22:29.913Z,43.17
2023-02-11T16:24:59.915Z,45.40
2023-02-11T16:27:34.011Z,48.17
2023-02-11T16:30:00.647Z,44.03
2023-02-11T16:32:28.673Z,47.47
2023-02-11T16:34:58.010Z,52.37
2023-02-11T16:37:25.386Z,55.00
2023-02-11T16:39:58.394Z,50.30
2023-02-11T16:42:25.192Z,47.97
2023-02-11T16:44:51.666Z,48.80
2023-02-11T16:47:24.333Z,50.57
2023-02-11T16:49:50.977Z,51.13
2023-02-11T16:52:18.145Z,52.00
2023-02-11T16:54:44.667Z,46.63
2023-02-11T16:57:22.660Z,44.93
2023-02-11T16:59:49.537Z,46.83
2023-02-11T17:02:24.393Z,50.67
2023-02-11T17:04:53.440Z,44.30
2023-02-11T17:07:19.937Z,46.17
2023-02-11T17:09:46.446Z,43.57
2023-02-11T17:12:12.855Z,49.33
2023-02-11T17:14:39.306Z,46.40
2023-02-11T17:17:05.808Z,51.47
2023-02-11T17:19:32.257Z,49.53
2023-02-11T17:21:58.769Z,48.50
2023-02-11T17:24:25.114Z,46.93
2023-02-11T17:26:51.648Z,47.50
2023-02-11T17:29:22.514Z,50.60
2023-02-11T17:31:49.778Z,47.60
2023-02-11T17:34:16.791Z,45.20
2023-02-11T17:36:43.317Z,45.20
2023-02-11T17:39:10.287Z,44.27
2023-02-11T17:41:38.355Z,48.20
2023-02-11T17:44:06.128Z,50.03
2023-02-11T17:46:34.477Z,45.50
2023-02-11T17:49:01.947Z,52.73
2023-02-11T17:51:30.477Z,49.10
2023-02-11T17:54:02.543Z,48.50
2023-02-11T17:56:32.169Z,58.20
2023-02-11T17:58:58.735Z,47.67
2023-02-11T18:01:29.730Z,61.70
2023-02-11T18:03:56.218Z,56.57
2023-02-11T18:06:22.732Z,57.43
2023-02-11T18:08:49.483Z,52.27
2023-02-11T18:11:16.627Z,55.43
2023-02-11T18:13:45.163Z,51.13
2023-02-11T18:16:15.893Z,48.10
2023-02-11T18:18:43.475Z,46.10
2023-02-11T18:21:18.160Z,45.57
2023-02-11T18:23:45.256Z,45.40
2023-02-11T18:26:13.624Z,49.60
2023-02-11T18:28:42.667Z,47.07
2023-02-11T18:31:10.884Z,47.20
2023-02-11T18:33:38.970Z,51.23
2023-02-11T18:36:11.760Z,48.97
2023-02-11T18:38:38.702Z,54.93
2023-02-11T18:41:05.468Z,52.03
2023-02-11T18:43:33.540Z,52.93
2023-02-11T18:46:01.569Z,53.37
2023-02-11T18:48:28.512Z,62.13
2023-02-11T18:50:55.448Z,58.03
2023-02-11T18:53:23.051Z,61.20
2023-02-11T18:55:49.617Z,53.53
2023-02-11T18:58:16.253Z,46.70
2023-02-11T19:00:45.621Z,44.63
2023-02-11T19:03:12.018Z,43.53
2023-02-11T19:05:47.368Z,39.00
2023-02-11T19:08:14.199Z,38.40
2023-02-11T19:10:42.119Z,41.63
2023-02-11T19:13:08.810Z,40.60
2023-02-11T19:15:40.202Z,39.23
2023-02-11T19:18:06.621Z,44.00
2023-02-11T19:20:33.386Z,37.03
2023-02-11T19:23:00.701Z,41.70
2023-02-11T19:25:27.232Z,43.40
2023-02-11T19:27:53.667Z,38.13
2023-02-11T19:30:20.231Z,45.10
2023-02-11T19:32:46.736Z,41.10
2023-02-11T19:35:13.187Z,41.73
2023-02-11T19:37:39.606Z,45.00
2023-02-11T19:40:07.443Z,44.60
2023-02-11T19:42:33.910Z,44.27
2023-02-11T19:45:00.272Z,45.40
2023-02-11T19:47:27.601Z,45.90
2023-02-11T19:49:54.453Z,42.57
2023-02-11T19:52:20.995Z,41.90
2023-02-11T19:54:47.472Z,41.30
2023-02-11T19:57:13.871Z,40.47
2023-02-11T19:59:40.403Z,45.73
2023-02-11T20:02:06.820Z,41.73
2023-02-11T20:04:33.362Z,42.63
2023-02-11T20:06:59.808Z,38.27
2023-02-11T20:09:27.309Z,36.33
2023-02-11T20:11:53.765Z,39.83
2023-02-11T20:14:20.275Z,39.33
2023-02-11T20:16:49.605Z,37.87
2023-02-11T20:19:18.884Z,38.93
2023-02-11T20:21:47.562Z,37.60
2023-02-11T20:24:15.390Z,40.23
2023-02-11T20:26:42.468Z,38.70
2023-02-11T20:29:09.090Z,39.37
2023-02-11T20:31:35.768Z,39.60
2023-02-11T20:34:03.016Z,35.87
2023-02-11T20:36:32.277Z,34.53
2023-02-11T20:38:59.924Z,33.90
2023-02-11T20:41:34.163Z,34.20
2023-02-11T20:44:04.374Z,33.70
2023-02-11T20:46:32.958Z,37.10
2023-02-11T20:49:00.727Z,45.83
2023-02-11T20:51:30.371Z,44.77
2023-02-11T20:53:57.059Z,39.20
2023-02-11T20:56:29.161Z,48.47
2023-02-11T20:58:57.887Z,43.67
2023-02-11T21:01:33.820Z,44.80
2023-02-11T21:04:06.274Z,48.10
2023-02-11T21:06:43.974Z,50.10
2023-02-11T21:09:14.014Z,46.83
2023-02-11T21:11:41.416Z,39.50
2023-02-11T21:14:08.326Z,38.20
2023-02-11T21:16:34.747Z,33.73
2023-02-11T21:19:01.325Z,39.07
2023-02-11T21:21:27.771Z,34.40
2023-02-11T21:23:56.250Z,34.73
2023-02-11T21:26:23.009Z,33.10
2023-02-11T21:28:50.063Z,34.70
2023-02-11T21:31:22.948Z,35.60
2023-02-11T21:33:50.854Z,31.63
2023-02-11T21:36:17.353Z,31.80
2023-02-11T21:38:43.829Z,29.27
2023-02-11T21:41:11.823Z,36.10
2023-02-11T21:43:38.506Z,32.17
2023-02-11T21:46:14.011Z,34.20
2023-02-11T21:48:40.703Z,34.53
2023-02-11T21:51:11.214Z,35.30
2023-02-11T21:53:37.648Z,38.13
2023-02-11T21:56:13.037Z,33.20
2023-02-11T21:58:39.534Z,37.10
2023-02-11T22:01:15.524Z,35.77
2023-02-11T22:03:42.672Z,40.87
2023-02-11T22:06:11.174Z,38.27
2023-02-11T22:08:38.593Z,35.30
2023-02-11T22:11:07.009Z,39.03
2023-02-11T22:13:34.455Z,39.33
2023-02-11T22:16:02.846Z,35.50
2023-02-11T22:18:30.402Z,34.00
2023-02-11T22:21:19.080Z,34.40
2023-02-11T22:23:46.001Z,35.77
2023-02-11T22:26:16.532Z,34.63
2023-02-11T22:28:43.484Z,31.47
2023-02-11T22:31:13.413Z,33.80
2023-02-11T22:33:40.337Z,34.57
2023-02-11T22:36:12.185Z,33.03
2023-02-11T22:38:38.607Z,30.03
2023-02-11T22:41:07.795Z,29.47
2023-02-11T22:43:34.251Z,31.37
2023-02-11T22:46:05.982Z,31.97
2023-02-11T22:48:33.462Z,33.00
2023-02-11T22:51:12.309Z,31.73
2023-02-11T22:53:38.920Z,27.20
2023-02-11T22:56:15.056Z,30.10
2023-02-11T22:58:41.930Z,29.33
2023-02-11T23:01:08.473Z,34.20
2023-02-11T23:03:35.543Z,34.17
2023-02-11T23:06:02.064Z,35.53
2023-02-11T23:08:30.327Z,36.10
2023-02-11T23:11:02.414Z,32.20
2023-02-11T23:13:28.841Z,36.43
2023-02-11T23:15:55.652Z,35.33
2023-02-11T23:18:22.316Z,36.63
2023-02-11T23:20:48.750Z,36.83
2023-02-11T23:23:15.169Z,33.73
2023-02-11T23:25:44.817Z,42.47
2023-02-11T23:28:12.299Z,34.37
2023-02-11T23:30:39.343Z,34.83
2023-02-11T23:33:05.935Z,33.23
2023-02-11T23:35:32.772Z,32.53
2023-02-11T23:37:59.214Z,31.50
2023-02-11T23:40:25.758Z,30.77
2023-02-11T23:42:52.307Z,30.53
2023-02-11T23:45:18.725Z,34.23
2023-02-11T23:47:45.185Z,35.37
2023-02-11T23:50:11.815Z,32.17
2023-02-11T23:52:38.273Z,32.77
2023-02-11T23:55:05.185Z,28.73
2023-02-11T23:57:32.850Z,32.30
2023-02-11T23:59:59.276Z,30.97
